Time;durP1;ratioP1;P1;durP2;ratioP2;P2;SDS_P1;SDS_P2;PMS_P1;PMS_P2;Temp;Humidity;BMP_temperature;BMP_pressure;BME280_temperature;BME280_humidity;BME280_pressure;Samples;Min_cycle;Max_cycle;Signal;HPM_P1;HPM_P2
2023/04/24 00:02:38;;;;;;;;;;;21.70;46.90;;;;;;6175045;28;19953;-47
2023/04/24 00:05:41;;;;;;;;;;;21.70;47.00;;;;;;6175038;28;20379;-49
2023/04/24 00:08:42;;;;;;;;;;;21.30;46.80;;;;;;6174687;28;19929;-46
2023/04/24 00:11:43;;;;;;;;;;;21.20;46.80;;;;;;6173450;28;19929;-47
2023/04/24 00:14:46;;;;;;;;;;;22.10;47.40;;;;;;6174855;28;19926;-47
2023/04/24 00:17:47;;;;;;;;;;;21.20;46.80;;;;;;6174641;28;20385;-45
2023/04/24 00:20:49;;;;;;;;;;;21.60;47.10;;;;;;6174191;28;19992;-47
2023/04/24 00:23:50;;;;;;;;;;;21.30;46.90;;;;;;6175267;28;19934;-50
2023/04/24 00:26:52;;;;;;;;;;;22.20;47.40;;;;;;6174430;28;19957;-46
2023/04/24 00:29:53;;;;;;;;;;;21.60;47.10;;;;;;6175093;28;20567;-47
2023/04/24 00:32:55;;;;;;;;;;;21.20;46.90;;;;;;6174772;28;19922;-47
2023/04/24 00:35:58;;;;;;;;;;;21.00;46.80;;;;;;6174241;28;19929;-46
2023/04/24 00:38:59;;;;;;;;;;;21.60;47.10;;;;;;6174659;28;19922;-48
2023/04/24 00:42:01;;;;;;;;;;;21.20;46.90;;;;;;6174540;28;20393;-48
2023/04/24 00:45:04;;;;;;;;;;;21.20;46.70;;;;;;6174799;28;19929;-49
2023/04/24 00:48:06;;;;;;;;;;;21.50;46.90;;;;;;6174783;28;19922;-48
2023/04/24 00:51:08;;;;;;;;;;;21.60;47.20;;;;;;6174268;28;19921;-50
2023/04/24 00:54:09;;;;;;;;;;;21.20;47.00;;;;;;6174387;28;19929;-49
2023/04/24 00:57:11;;;;;;;;;;;21.90;47.40;;;;;;6175033;28;20274;-46
2023/04/24 01:00:13;;;;;;;;;;;21.00;46.80;;;;;;6174405;28;19972;-50
2023/04/24 01:03:15;;;;;;;;;;;21.20;46.80;;;;;;6175029;28;20009;-50
2023/04/24 01:06:18;;;;;;;;;;;20.90;47.00;;;;;;6175713;28;20422;-49
2023/04/24 01:09:21;;;;;;;;;;;21.10;46.90;;;;;;6174692;28;20381;-48
2023/04/24 01:12:22;;;;;;;;;;;21.20;46.90;;;;;;6177753;28;19922;-46
2023/04/24 01:15:26;;;;;;;;;;;21.00;46.90;;;;;;6176988;28;19922;-48
2023/04/24 01:18:28;;;;;;;;;;;21.30;46.90;;;;;;6178942;28;19922;-49
2023/04/24 01:21:33;;;;;;;;;;;21.30;47.10;;;;;;6201130;23;19918;-87
2023/04/24 01:24:35;;;;;;;;;;;21.50;44.60;;;;;;6204683;28;19922;-87
2023/04/24 01:27:39;;;;;;;;;;;22.00;47.70;;;;;;6203714;28;19989;-86
2023/04/24 01:30:44;;;;;;;;;;;21.10;48.10;;;;;;6203980;28;19929;-86
2023/04/24 01:33:45;;;;;;;;;;;21.10;47.20;;;;;;6203863;28;19997;-86
2023/04/24 01:36:47;;;;;;;;;;;20.90;48.00;;;;;;6203884;28;19945;-86
2023/04/24 01:39:49;;;;;;;;;;;23.50;48.50;;;;;;6202986;28;19929;-87
2023/04/24 01:42:51;;;;;;;;;;;20.50;47.10;;;;;;6202843;28;19922;-86
2023/04/24 01:45:52;;;;;;;;;;;20.80;47.40;;;;;;6203216;28;19922;-87
2023/04/24 01:48:56;;;;;;;;;;;21.10;47.30;;;;;;6203436;28;19922;-87
2023/04/24 01:51:57;;;;;;;;;;;20.90;48.70;;;;;;6203117;28;19922;-86
2023/04/24 01:55:00;;;;;;;;;;;20.10;47.40;;;;;;6203258;28;19906;-86
2023/04/24 01:58:02;;;;;;;;;;;19.20;46.20;;;;;;6203310;28;19922;-87
2023/04/24 02:01:03;;;;;;;;;;;21.30;48.10;;;;;;6204124;28;19929;-86
2023/04/24 02:04:05;;;;;;;;;;;21.80;48.90;;;;;;6203810;28;19922;-86
2023/04/24 02:07:08;;;;;;;;;;;20.70;47.00;;;;;;6202960;28;19922;-86
2023/04/24 02:10:12;;;;;;;;;;;20.90;48.30;;;;;;6204736;28;19922;-87
2023/04/24 02:13:17;;;;;;;;;;;20.90;47.20;;;;;;6202870;28;19921;-86
2023/04/24 02:16:18;;;;;;;;;;;20.50;47.90;;;;;;6203645;28;19922;-86
2023/04/24 02:19:20;;;;;;;;;;;21.20;48.10;;;;;;6187128;28;19921;-86
2023/04/24 02:22:21;;;;;;;;;;;21.10;48.40;;;;;;6202021;28;19917;-87
2023/04/24 02:25:25;;;;;;;;;;;20.80;47.90;;;;;;6203015;28;19929;-86
2023/04/24 02:28:30;;;;;;;;;;;21.50;47.60;;;;;;6203827;28;19914;-87
2023/04/24 02:31:31;;;;;;;;;;;21.30;49.50;;;;;;6205028;28;19910;-87
2023/04/24 02:34:34;;;;;;;;;;;21.60;48.40;;;;;;6206490;28;19945;-87
2023/04/24 02:37:35;;;;;;;;;;;21.40;49.20;;;;;;6204916;28;20294;-86
2023/04/24 02:40:37;;;;;;;;;;;20.40;48.00;;;;;;6202391;28;19954;-87
2023/04/24 02:43:39;;;;;;;;;;;20.80;47.40;;;;;;6201324;28;19964;-86
2023/04/24 02:46:41;;;;;;;;;;;19.60;47.80;;;;;;6201403;28;19953;-86
2023/04/24 02:49:46;;;;;;;;;;;21.00;47.40;;;;;;6201799;28;19922;-86
2023/04/24 02:52:48;;;;;;;;;;;21.40;44.80;;;;;;6200794;28;19937;-86
2023/04/24 02:55:50;;;;;;;;;;;21.10;47.80;;;;;;6203463;28;19961;-87
2023/04/24 02:58:51;;;;;;;;;;;21.70;47.90;;;;;;6205849;28;19922;-87
2023/04/24 03:01:52;;;;;;;;;;;20.70;48.40;;;;;;6205952;28;19921;-87
2023/04/24 03:04:54;;;;;;;;;;;20.20;48.00;;;;;;6206440;28;20008;-87
2023/04/24 03:07:56;;;;;;;;;;;20.50;48.50;;;;;;6201914;28;19929;-86
2023/04/24 03:10:58;;;;;;;;;;;22.30;48.80;;;;;;6202534;28;19928;-86
2023/04/24 03:14:02;;;;;;;;;;;20.90;47.50;;;;;;6201849;28;19922;-86
2023/04/24 03:17:07;;;;;;;;;;;21.90;48.40;;;;;;6201874;28;19945;-86
2023/04/24 03:20:09;;;;;;;;;;;20.10;44.30;;;;;;6201598;28;19965;-87
2023/04/24 03:23:12;;;;;;;;;;;20.90;47.40;;;;;;6223719;23;19954;-40
2023/04/24 03:32:39;;;;;;;1.25;0.40;;;21.50;42.90;;;;;;6453329;27;20449;-43
2023/04/24 03:35:45;;;;;;;0.40;0.40;;;21.10;42.90;;;;;;6452452;27;20042;-44
2023/04/24 03:38:47;;;;;;;1.60;0.45;;;21.00;42.80;;;;;;6448892;27;20034;-43
2023/04/24 03:42:03;;;;;;;0.47;0.30;;;21.40;43.00;;;;;;6451106;27;20536;-46
2023/04/24 03:45:21;;;;;;;0.57;0.30;;;21.00;42.80;;;;;;6456253;27;20049;-43
2023/04/24 03:48:25;;;;;;;0.63;0.43;;;21.40;42.90;;;;;;6454533;27;20548;-45
2023/04/24 03:51:30;;;;;;;0.38;0.30;;;21.40;42.90;;;;;;6453639;27;20056;-43
2023/04/24 03:54:37;;;;;;;0.50;0.40;;;21.50;42.90;;;;;;6453471;27;20118;-44
2023/04/24 03:57:40;;;;;;;0.93;0.52;;;21.30;42.70;;;;;;6452824;27;20042;-45
2023/04/24 04:00:51;;;;;;;0.82;0.30;;;21.30;42.70;;;;;;6453043;27;20042;-43
2023/04/24 04:04:13;;;;;;;;;;;21.30;42.60;;;;;;6452069;27;20512;-43
2023/04/24 04:07:15;;;;;;;0.55;0.38;;;21.30;42.70;;;;;;6450908;27;20395;-43
2023/04/24 04:10:17;;;;;;;1.02;0.50;;;21.20;42.60;;;;;;6452170;27;20034;-44
2023/04/24 04:13:18;;;;;;;0.80;0.50;;;21.10;42.50;;;;;;6435098;27;20424;-45
2023/04/24 04:16:20;;;;;;;;;;;21.00;42.40;;;;;;6425723;27;20047;-44
2023/04/24 04:19:26;;;;;;;1.02;0.40;;;21.00;42.60;;;;;;6425385;27;19919;-45
2023/04/24 04:22:28;;;;;;;0.95;0.50;;;21.10;42.40;;;;;;6425011;27;20034;-44
2023/04/24 04:25:30;;;;;;;0.93;0.40;;;21.10;42.40;;;;;;6424627;27;20042;-43
2023/04/24 04:28:32;;;;;;;0.93;0.50;;;21.10;42.40;;;;;;6425200;27;20030;-45
2023/04/24 04:31:36;;;;;;;0.90;0.70;;;21.20;42.50;;;;;;6424630;27;20500;-45
2023/04/24 04:34:45;;;;;;;1.13;0.47;;;21.30;42.50;;;;;;6424922;27;20034;-44
2023/04/24 04:37:46;;;;;;;1.25;0.50;;;21.30;42.50;;;;;;6416317;27;20047;-43
2023/04/24 04:45:51;;;;;;;0.70;0.40;;;21.30;42.30;;;;;;6401482;27;20043;-43
2023/04/24 04:49:13;;;;;;;0.82;0.47;;;21.30;42.50;;;;;;6404751;27;20039;-43
2023/04/24 04:52:16;;;;;;;1.63;0.68;;;21.00;42.40;;;;;;6406244;27;20042;-44
2023/04/24 04:55:19;;;;;;;0.65;0.30;;;21.20;42.50;;;;;;6406439;27;20078;-45
2023/04/24 04:58:41;;;;;;;0.98;0.55;;;21.20;42.50;;;;;;6406312;27;20045;-45
2023/04/24 05:01:47;;;;;;;0.68;0.40;;;21.20;42.50;;;;;;6405179;27;20099;-46
2023/04/24 05:04:50;;;;;;;0.65;0.35;;;21.10;42.40;;;;;;6404763;27;20050;-42
2023/04/24 05:07:53;;;;;;;0.52;0.30;;;21.10;42.40;;;;;;6404996;27;20038;-43
2023/04/24 05:10:55;;;;;;;0.75;0.40;;;21.00;42.40;;;;;;6404354;27;20039;-43
2023/04/24 05:13:57;;;;;;;0.63;0.40;;;21.00;42.40;;;;;;6403603;27;20121;-46
2023/04/24 05:17:07;;;;;;;0.63;0.57;;;21.10;42.40;;;;;;6404282;27;20114;-42
2023/04/24 05:20:10;;;;;;;0.65;0.43;;;21.30;42.50;;;;;;6404810;27;20074;-44
2023/04/24 05:23:13;;;;;;;0.85;0.57;;;21.00;42.40;;;;;;6405052;27;20050;-48
2023/04/24 05:26:17;;;;;;;0.70;0.40;;;21.10;42.50;;;;;;6404240;27;20147;-45
2023/04/24 05:29:20;;;;;;;1.20;0.40;;;21.00;42.40;;;;;;6404948;27;20371;-46
2023/04/24 05:32:22;;;;;;;0.50;0.40;;;21.30;42.60;;;;;;6404514;27;20038;-43
2023/04/24 05:35:25;;;;;;;;;;;21.00;42.40;;;;;;6404858;27;20042;-44
2023/04/24 05:38:27;;;;;;;0.70;0.30;;;21.00;42.50;;;;;;6404085;27;19968;-43
2023/04/24 05:41:29;;;;;;;0.52;0.30;;;21.00;42.50;;;;;;6404165;27;20042;-45
2023/04/24 05:44:31;;;;;;;0.45;0.32;;;20.90;42.40;;;;;;6404214;27;20039;-42
2023/04/24 05:47:34;;;;;;;0.77;0.30;;;21.20;42.60;;;;;;6403919;27;20047;-47
2023/04/24 05:50:36;;;;;;;0.50;0.30;;;20.90;42.50;;;;;;6402877;27;20078;-44
2023/04/24 05:53:39;;;;;;;0.60;0.40;;;21.00;42.40;;;;;;6351080;27;20078;-45
2023/04/24 05:56:41;;;;;;;0.95;0.40;;;21.00;42.60;;;;;;6402431;27;20043;-47
2023/04/24 05:59:50;;;;;;;0.50;0.40;;;21.30;42.70;;;;;;6385270;27;20043;-46
2023/04/24 06:02:52;;;;;;;0.73;0.30;;;21.20;42.60;;;;;;6402669;27;20126;-44
2023/04/24 06:05:55;;;;;;;0.50;0.40;;;21.20;42.70;;;;;;6403166;27;20046;-46
2023/04/24 06:08:58;;;;;;;0.70;0.40;;;21.10;42.60;;;;;;6404910;27;20034;-43
2023/04/24 06:12:02;;;;;;;0.30;0.25;;;21.10;42.70;;;;;;6405122;27;20047;-46
2023/04/24 06:15:14;;;;;;;0.80;0.40;;;21.20;42.80;;;;;;6404766;27;20042;-43
2023/04/24 06:18:27;;;;;;;5.45;1.38;;;21.10;42.80;;;;;;6405652;27;20035;-44
2023/04/24 06:21:29;;;;;;;0.45;0.32;;;21.30;42.90;;;;;;6404910;27;20091;-43
2023/04/24 06:24:31;;;;;;;0.75;0.40;;;21.30;42.90;;;;;;6404056;27;20043;-46
2023/04/24 06:27:33;;;;;;;0.30;0.30;;;21.20;42.90;;;;;;6403684;27;20085;-43
2023/04/24 06:30:36;;;;;;;0.30;0.30;;;21.10;42.80;;;;;;6405613;27;20039;-44
2023/04/24 06:33:37;;;;;;;;;;;21.20;42.90;;;;;;6408635;27;20043;-44
2023/04/24 06:36:41;;;;;;;0.47;0.22;;;21.30;43.00;;;;;;6408635;27;19919;-44
2023/04/24 06:39:43;;;;;;;0.40;0.40;;;21.30;42.90;;;;;;6390184;27;20091;-46
2023/04/24 06:42:45;;;;;;;0.50;0.30;;;21.20;42.90;;;;;;6408516;27;20046;-45
2023/04/24 06:45:47;;;;;;;;;;;21.30;43.00;;;;;;6407959;27;20039;-43
2023/04/24 06:48:50;;;;;;;0.40;0.30;;;21.20;43.00;;;;;;6409504;27;19918;-47
2023/04/24 06:51:51;;;;;;;0.30;0.30;;;21.40;43.00;;;;;;6412248;27;20042;-43
2023/04/24 06:54:59;;;;;;;;;;;21.50;43.10;;;;;;6412928;27;20031;-43
2023/04/24 06:58:01;;;;;;;0.57;0.35;;;21.00;42.90;;;;;;6409288;27;19963;-42
2023/04/24 07:01:02;;;;;;;;;;;21.20;43.00;;;;;;6409047;27;20435;-43
2023/04/24 07:04:04;;;;;;;0.52;0.20;;;21.30;43.10;;;;;;6412418;27;19922;-44
2023/04/24 07:07:06;;;;;;;0.50;0.30;;;21.10;43.00;;;;;;6408957;27;20046;-42
2023/04/24 07:10:09;;;;;;;1.83;0.40;;;21.00;43.00;;;;;;6412507;27;20035;-44
2023/04/24 07:13:10;;;;;;;0.45;0.30;;;20.50;42.80;;;;;;6417161;27;20502;-43
2023/04/24 07:16:12;;;;;;;;;;;21.40;43.90;;;;;;6415984;27;20119;-46
2023/04/24 07:19:13;;;;;;;0.10;0.10;;;21.50;43.40;;;;;;6416134;27;19940;-45
2023/04/24 07:22:17;;;;;;;0.82;0.30;;;21.10;43.10;;;;;;6414283;27;20034;-44
2023/04/24 07:25:19;;;;;;;0.45;0.28;;;21.40;43.20;;;;;;6411376;27;20038;-43
2023/04/24 07:28:20;;;;;;;0.88;0.32;;;21.40;43.20;;;;;;6408924;27;20034;-43
2023/04/24 07:31:22;;;;;;;;;;;21.20;43.10;;;;;;6421554;27;20022;-48
2023/04/24 07:34:23;;;;;;;3.30;0.28;;;21.50;43.50;;;;;;6420584;27;19919;-45
2023/04/24 07:37:28;;;;;;;0.30;0.30;;;21.40;43.30;;;;;;6419092;27;20039;-47
2023/04/24 07:40:30;;;;;;;0.60;0.40;;;21.50;43.20;;;;;;6418804;27;20043;-45
2023/04/24 07:43:32;;;;;;;0.60;0.30;;;21.70;43.40;;;;;;6420122;27;20034;-43
2023/04/24 07:46:33;;;;;;;;;;;21.20;43.00;;;;;;6420985;27;20050;-44
2023/04/24 07:49:35;;;;;;;0.38;0.20;;;21.50;43.30;;;;;;6410476;27;19926;-40
2023/04/24 07:52:36;;;;;;;;;;;21.20;42.90;;;;;;6409148;27;20050;-42
2023/04/24 07:55:38;;;;;;;0.30;0.20;;;21.70;43.20;;;;;;6410458;27;19926;-45
2023/04/24 07:58:43;;;;;;;0.30;0.22;;;21.60;43.00;;;;;;6410392;27;20042;-49
2023/04/24 08:01:45;;;;;;;0.38;0.30;;;21.40;42.70;;;;;;6415447;27;20038;-42
2023/04/24 08:04:47;;;;;;;;;;;21.60;42.80;;;;;;6421300;27;20047;-41
2023/04/24 08:07:50;;;;;;;0.40;0.20;;;21.60;42.70;;;;;;6422456;27;19907;-45
2023/04/24 08:10:55;;;;;;;0.63;0.32;;;21.60;42.60;;;;;;6426302;27;20103;-44
2023/04/24 08:13:56;;;;;;;0.50;0.30;;;21.70;42.50;;;;;;6427301;27;20039;-39
2023/04/24 08:16:59;;;;;;;;;;;21.70;42.40;;;;;;6428340;27;20054;-39
2023/04/24 08:20:01;;;;;;;0.50;0.40;;;21.80;42.50;;;;;;6427403;27;19945;-41
2023/04/24 08:23:03;;;;;;;1.67;0.32;;;21.60;42.20;;;;;;6422259;27;20038;-40
2023/04/24 08:26:06;;;;;;;1.02;0.60;;;21.80;42.30;;;;;;6414687;27;20039;-39
2023/04/24 08:29:08;;;;;;;0.55;0.30;;;21.60;42.10;;;;;;6416498;27;20035;-40
2023/04/24 08:32:09;;;;;;;0.30;0.20;;;21.90;42.20;;;;;;6424161;27;20090;-40
2023/04/24 08:35:11;;;;;;;;;;;21.80;41.90;;;;;;6419140;27;20043;-39
2023/04/24 08:38:12;;;;;;;0.30;0.22;;;21.90;42.00;;;;;;6419639;27;20439;-46
2023/04/24 08:41:15;;;;;;;;;;;21.80;41.80;;;;;;6419895;27;20091;-45
2023/04/24 08:44:17;;;;;;;0.30;0.30;;;22.00;41.90;;;;;;6396852;27;19923;-43
2023/04/24 08:47:20;;;;;;;2.55;0.47;;;21.90;41.70;;;;;;6394184;27;20053;-42
2023/04/24 08:50:22;;;;;;;0.25;0.25;;;21.70;41.50;;;;;;6396444;27;20042;-40
2023/04/24 08:53:25;;;;;;;0.80;0.40;;;21.70;41.40;;;;;;6402101;27;20091;-42
2023/04/24 08:56:31;;;;;;;0.38;0.38;;;21.90;41.40;;;;;;6397347;27;20051;-43
2023/04/24 08:59:35;;;;;;;0.70;0.30;;;22.10;41.30;;;;;;6412498;27;20050;-44
2023/04/24 09:02:36;;;;;;;0.20;0.20;;;22.00;41.20;;;;;;6410824;27;20079;-44
2023/04/24 09:05:45;;;;;;;0.65;0.63;;;21.90;41.00;;;;;;6360788;27;20118;-43
2023/04/24 09:08:48;;;;;;;0.30;0.30;;;21.90;40.90;;;;;;6414995;27;20043;-43
2023/04/24 09:11:51;;;;;;;0.20;0.20;;;22.10;40.80;;;;;;6413610;27;20080;-42
2023/04/24 09:14:53;;;;;;;0.30;0.30;;;22.10;40.60;;;;;;6409705;27;20043;-44
2023/04/24 09:17:54;;;;;;;0.35;0.20;;;22.20;40.60;;;;;;6404823;27;20087;-39
2023/04/24 09:20:58;;;;;;;0.22;0.20;;;22.00;40.30;;;;;;6408341;27;20087;-40
2023/04/24 09:24:00;;;;;;;0.63;0.35;;;22.10;40.30;;;;;;6406875;27;20042;-39
2023/04/24 09:27:03;;;;;;;0.45;0.30;;;22.20;40.30;;;;;;6407532;27;20047;-44
2023/04/24 09:30:07;;;;;;;0.45;0.30;;;22.20;40.40;;;;;;6394452;27;20056;-41
2023/04/24 09:33:13;;;;;;;0.47;0.32;;;22.00;40.30;;;;;;6412010;27;20039;-41
2023/04/24 09:36:18;;;;;;;0.43;0.22;;;22.30;40.40;;;;;;6393382;27;20050;-41
2023/04/24 09:39:20;;;;;;;0.50;0.30;;;22.30;40.30;;;;;;6408142;27;20039;-40
2023/04/24 09:42:28;;;;;;;0.40;0.30;;;22.10;40.20;;;;;;6416848;27;20042;-44
2023/04/24 09:45:36;;;;;;;0.45;0.30;;;22.10;40.10;;;;;;6415095;27;20041;-42
2023/04/24 09:48:41;;;;;;;0.40;0.40;;;22.30;40.20;;;;;;6418153;27;20042;-44
2023/04/24 09:51:43;;;;;;;0.90;0.50;;;22.50;40.30;;;;;;6415068;27;20043;-45
2023/04/24 09:54:54;;;;;;;0.68;0.45;;;22.40;40.30;;;;;;6416632;27;20035;-43
2023/04/24 09:57:57;;;;;;;0.38;0.38;;;22.50;40.30;;;;;;6405222;27;20042;-44
2023/04/24 10:00:59;;;;;;;0.55;0.30;;;22.40;40.30;;;;;;6405607;27;20043;-44
2023/04/24 10:04:01;;;;;;;0.47;0.40;;;22.40;40.30;;;;;;6423804;27;20046;-41
2023/04/24 10:07:06;;;;;;;0.55;0.32;;;22.40;40.80;;;;;;6423567;27;20039;-44
2023/04/24 10:10:08;;;;;;;0.40;0.30;;;22.40;40.10;;;;;;6417611;27;20043;-45
2023/04/24 10:13:11;;;;;;;0.40;0.30;;;22.50;40.10;;;;;;6412207;27;20385;-42
2023/04/24 10:16:14;;;;;;;0.45;0.43;;;22.50;40.00;;;;;;6398224;27;20050;-43
2023/04/24 10:19:18;;;;;;;0.95;0.40;;;22.50;39.90;;;;;;6419180;27;20042;-43
2023/04/24 10:22:23;;;;;;;0.52;0.52;;;22.50;39.80;;;;;;6418351;27;20035;-44
2023/04/24 10:25:26;;;;;;;0.98;0.52;;;22.30;39.70;;;;;;6420304;27;20039;-43
2023/04/24 10:28:31;;;;;;;0.47;0.30;;;22.40;39.60;;;;;;6419494;27;20054;-45
2023/04/24 10:31:33;;;;;;;0.30;0.22;;;22.50;39.60;;;;;;6419210;27;20068;-44
2023/04/24 10:34:37;;;;;;;0.70;0.50;;;22.60;39.70;;;;;;6417637;27;20043;-43
2023/04/24 10:37:42;;;;;;;0.35;0.30;;;22.40;39.50;;;;;;6419178;27;20060;-45
2023/04/24 10:40:43;;;;;;;0.30;0.30;;;22.30;39.40;;;;;;6420664;27;20397;-42
2023/04/24 10:43:45;;;;;;;0.50;0.43;;;22.10;39.20;;;;;;6422042;27;20067;-44
2023/04/24 10:46:52;;;;;;;0.70;0.40;;;22.20;39.20;;;;;;6421173;27;20059;-44
2023/04/24 10:49:58;;;;;;;0.40;0.30;;;22.50;39.40;;;;;;6420036;27;20114;-44
2023/04/24 10:53:07;;;;;;;0.88;0.50;;;22.30;39.20;;;;;;6420213;27;20091;-43
2023/04/24 10:56:09;;;;;;;0.70;0.30;;;22.30;39.20;;;;;;6421210;27;20048;-43
2023/04/24 10:59:25;;;;;;;0.20;0.20;;;22.40;39.20;;;;;;6404104;27;20052;-44
2023/04/24 11:02:40;;;;;;;0.40;0.40;;;22.20;39.10;;;;;;6403039;27;20067;-44
2023/04/24 11:05:57;;;;;;;0.45;0.40;;;22.30;39.10;;;;;;6405463;27;20046;-44
2023/04/24 11:09:05;;;;;;;0.40;0.30;;;22.50;39.30;;;;;;6405906;27;20043;-44
2023/04/24 11:12:10;;;;;;;0.70;0.50;;;22.50;39.30;;;;;;6403059;27;20083;-46
2023/04/24 11:15:13;;;;;;;0.60;0.30;;;22.40;39.20;;;;;;6404727;27;20045;-44
2023/04/24 11:18:15;;;;;;;0.57;0.40;;;22.40;39.20;;;;;;6421945;27;20046;-43
2023/04/24 11:21:20;;;;;;;0.50;0.40;;;22.40;39.20;;;;;;6421939;27;20039;-44
2023/04/24 11:24:25;;;;;;;0.57;0.40;;;22.40;39.20;;;;;;6421145;27;20045;-43
2023/04/24 11:27:30;;;;;;;0.93;0.40;;;22.30;39.10;;;;;;6403989;27;20045;-44
2023/04/24 11:30:33;;;;;;;0.50;0.32;;;22.30;39.20;;;;;;6420570;27;20039;-45
2023/04/24 11:33:35;;;;;;;0.32;0.30;;;22.40;39.30;;;;;;6421304;27;20060;-42
2023/04/24 11:36:37;;;;;;;0.47;0.40;;;22.40;39.40;;;;;;6417702;27;20035;-44
2023/04/24 11:39:40;;;;;;;0.75;0.30;;;22.30;39.40;;;;;;6420240;27;20043;-42
2023/04/24 11:42:44;;;;;;;0.80;0.40;;;22.30;39.70;;;;;;6403871;27;20050;-45
2023/04/24 11:45:49;;;;;;;0.60;0.30;;;22.60;39.60;;;;;;6369796;27;20092;-46
2023/04/24 11:48:51;;;;;;;2.72;0.85;;;22.20;39.30;;;;;;6406364;27;20083;-47
2023/04/24 11:51:55;;;;;;;0.40;0.40;;;22.20;39.20;;;;;;6411161;27;20047;-44
2023/04/24 11:55:01;;;;;;;0.70;0.38;;;22.10;39.20;;;;;;6411356;27;20038;-45
2023/04/24 11:58:03;;;;;;;0.52;0.35;;;22.40;39.30;;;;;;6411555;27;20039;-46
2023/04/24 12:01:05;;;;;;;0.85;0.40;;;22.40;39.30;;;;;;6408722;27;20067;-43
2023/04/24 12:04:06;;;;;;;0.90;0.40;;;22.30;39.10;;;;;;6412018;27;20483;-42
2023/04/24 12:07:09;;;;;;;0.32;0.20;;;22.30;39.00;;;;;;6408849;27;20042;-56
2023/04/24 12:10:14;;;;;;;0.35;0.30;;;22.50;38.90;;;;;;6414772;27;20038;-50
2023/04/24 12:13:16;;;;;;;0.30;0.20;;;22.30;38.60;;;;;;6398720;27;20023;-48
2023/04/24 12:16:18;;;;;;;0.22;0.20;;;22.40;38.60;;;;;;6431181;27;20027;-48
2023/04/24 12:19:21;;;;;;;0.43;0.30;;;22.50;38.50;;;;;;6422988;27;20039;-44
2023/04/24 12:22:23;;;;;;;2.20;0.30;;;22.20;38.30;;;;;;6422054;27;20095;-62
2023/04/24 12:25:25;;;;;;;;;;;22.30;38.30;;;;;;6416932;27;20535;-48
2023/04/24 12:28:35;;;;;;;0.57;0.40;;;22.50;38.40;;;;;;6412646;27;19919;-50
2023/04/24 12:31:37;;;;;;;0.82;0.38;;;22.30;38.20;;;;;;6422193;27;20068;-59
2023/04/24 12:34:39;;;;;;;0.60;0.30;;;22.50;38.30;;;;;;6412644;27;20039;-48
2023/04/24 12:37:43;;;;;;;0.57;0.30;;;22.50;38.60;;;;;;6423669;27;20039;-51
2023/04/24 12:40:48;;;;;;;0.40;0.30;;;22.60;38.30;;;;;;6424774;27;20045;-45
2023/04/24 12:43:53;;;;;;;0.40;0.28;;;22.60;38.30;;;;;;6429249;27;20050;-49
2023/04/24 12:46:57;;;;;;;0.40;0.30;;;22.70;38.00;;;;;;6427906;27;20140;-51
2023/04/24 12:49:59;;;;;;;0.45;0.40;;;22.40;37.80;;;;;;6421974;27;20042;-51
2023/04/24 12:53:01;;;;;;;0.45;0.40;;;22.40;37.70;;;;;;6383227;27;20038;-48
2023/04/24 12:56:03;;;;;;;0.57;0.40;;;22.60;37.80;;;;;;6401634;27;20087;-53
2023/04/24 12:59:04;;;;;;;0.50;0.32;;;22.40;37.70;;;;;;6400808;27;20046;-56
2023/04/24 13:02:07;;;;;;;0.32;0.30;;;22.50;37.90;;;;;;6401664;27;20039;-55
2023/04/24 13:05:09;;;;;;;0.47;0.20;;;22.50;37.80;;;;;;6401530;27;20035;-52
2023/04/24 13:08:10;;;;;;;0.75;0.40;;;22.70;37.90;;;;;;6401773;27;20050;-50
2023/04/24 13:11:15;;;;;;;0.55;0.32;;;22.70;37.70;;;;;;6404710;27;20035;-50
2023/04/24 13:14:16;;;;;;;0.45;0.38;;;22.50;37.50;;;;;;6402898;27;20043;-51
2023/04/24 13:17:18;;;;;;;0.43;0.38;;;22.40;37.50;;;;;;6401215;27;20051;-54
2023/04/24 13:20:20;;;;;;;0.30;0.30;;;22.70;37.60;;;;;;6401510;27;20049;-52
2023/04/24 13:23:22;;;;;;;;;;;22.60;38.10;;;;;;6401474;27;20038;-53
2023/04/24 13:26:24;;;;;;;2.55;0.25;;;23.10;38.80;;;;;;6400352;27;20333;-51
2023/04/24 13:29:26;;;;;;;0.75;0.32;;;22.80;38.70;;;;;;6383926;27;20494;-49
2023/04/24 13:32:28;;;;;;;1.00;0.45;;;22.50;37.90;;;;;;6366734;27;20494;-52
2023/04/24 13:35:30;;;;;;;1.13;0.38;;;22.80;38.10;;;;;;6401721;27;20569;-54
2023/04/24 13:38:35;;;;;;;0.50;0.40;;;22.80;38.20;;;;;;6406188;27;20046;-47
2023/04/24 13:41:36;;;;;;;0.63;0.28;;;23.00;38.00;;;;;;6404790;27;20046;-45
2023/04/24 13:44:38;;;;;;;0.45;0.30;;;22.80;38.20;;;;;;6407262;27;20035;-48
2023/04/24 13:47:40;;;;;;;0.50;0.30;;;22.80;38.10;;;;;;6403489;27;20039;-45
2023/04/24 13:50:42;;;;;;;0.38;0.30;;;22.50;37.90;;;;;;6408667;27;20220;-44
2023/04/24 13:53:44;;;;;;;0.50;0.32;;;22.90;38.10;;;;;;6401922;27;20043;-45
2023/04/24 13:56:48;;;;;;;0.50;0.32;;;22.50;37.90;;;;;;6383796;27;20054;-45
2023/04/24 13:59:50;;;;;;;0.65;0.38;;;22.90;38.00;;;;;;6402022;27;20074;-44
2023/04/24 14:02:52;;;;;;;0.30;0.20;;;22.40;37.90;;;;;;6401366;27;20099;-48
2023/04/24 14:05:54;;;;;;;0.40;0.35;;;23.00;38.20;;;;;;6401803;27;20042;-43
2023/04/24 14:08:56;;;;;;;0.40;0.40;;;22.90;38.30;;;;;;6400715;27;20042;-48
2023/04/24 14:11:57;;;;;;;0.30;0.28;;;23.00;38.50;;;;;;6399284;27;20398;-51
2023/04/24 14:14:59;;;;;;;1.13;0.40;;;22.80;38.40;;;;;;6400420;27;20094;-48
2023/04/24 14:18:01;;;;;;;0.60;0.25;;;22.90;38.40;;;;;;6381472;27;20390;-49
2023/04/24 14:21:06;;;;;;;0.43;0.38;;;22.70;38.30;;;;;;6400064;27;20043;-48
2023/04/24 14:24:08;;;;;;;0.38;0.30;;;23.10;38.00;;;;;;6350425;27;20043;-49
2023/04/24 14:27:10;;;;;;;3.72;0.45;;;23.00;38.10;;;;;;6404503;27;20056;-49
2023/04/24 14:30:12;;;;;;;;;;;22.80;38.20;;;;;;6407284;27;20043;-50
2023/04/24 14:33:15;;;;;;;0.65;0.30;;;22.70;38.60;;;;;;6404949;27;19919;-50
2023/04/24 14:36:18;;;;;;;0.50;0.40;;;22.70;38.70;;;;;;6404698;27;20420;-50
2023/04/24 14:39:22;;;;;;;0.75;0.30;;;23.00;39.30;;;;;;6405668;27;20043;-47
2023/04/24 14:42:24;;;;;;;0.28;0.20;;;23.00;39.70;;;;;;6400359;27;20516;-50
2023/04/24 14:45:26;;;;;;;0.50;0.30;;;22.70;40.00;;;;;;6399385;27;20466;-51
2023/04/24 14:48:28;;;;;;;0.22;0.20;;;22.90;40.70;;;;;;6382509;27;20413;-46
2023/04/24 14:51:30;;;;;;;0.20;0.20;;;22.80;41.00;;;;;;6405102;27;20435;-46
2023/04/24 14:54:32;;;;;;;0.20;0.20;;;23.10;41.70;;;;;;6405298;27;20068;-45
2023/04/24 14:57:33;;;;;;;;;;;22.90;42.00;;;;;;6409312;27;20047;-48
2023/04/24 15:00:34;;;;;;;0.20;0.20;;;23.00;43.10;;;;;;6415499;27;19923;-46
2023/04/24 15:03:36;;;;;;;0.20;0.20;;;23.10;42.30;;;;;;6419551;27;20039;-50
2023/04/24 15:06:38;;;;;;;1.38;0.28;;;22.70;42.50;;;;;;6419374;27;20099;-49
2023/04/24 15:09:40;;;;;;;0.47;0.35;;;23.10;43.00;;;;;;6428746;27;20524;-48
2023/04/24 15:12:42;;;;;;;2.03;0.43;;;23.20;43.20;;;;;;6400276;27;20054;-53
2023/04/24 15:15:43;;;;;;;0.73;0.30;;;23.00;43.30;;;;;;6404707;27;20042;-53
2023/04/24 15:18:47;;;;;;;0.65;0.30;;;22.90;43.40;;;;;;6399070;27;20042;-53
2023/04/24 15:21:48;;;;;;;0.32;0.20;;;22.90;43.60;;;;;;6397898;27;20038;-57
2023/04/24 15:24:49;;;;;;;;;;;23.00;43.70;;;;;;6399484;27;20035;-54
2023/04/24 15:27:51;;;;;;;0.43;0.20;;;23.20;44.00;;;;;;6398389;27;20376;-55
2023/04/24 15:30:52;;;;;;;;;;;23.00;43.70;;;;;;6380070;27;20042;-55
2023/04/24 15:33:55;;;;;;;0.60;0.30;;;23.30;44.10;;;;;;6367620;27;19923;-57
2023/04/24 15:37:00;;;;;;;0.40;0.20;;;22.80;43.80;;;;;;6407802;27;20039;-56
2023/04/24 15:40:04;;;;;;;0.60;0.20;;;23.10;44.40;;;;;;6422489;27;20043;-50
2023/04/24 15:43:05;;;;;;;1.13;0.30;;;23.10;44.80;;;;;;6426907;27;20046;-51
2023/04/24 15:46:07;;;;;;;0.47;0.20;;;23.00;45.00;;;;;;6425339;27;20064;-51
2023/04/24 15:49:10;;;;;;;0.30;0.20;;;23.10;45.00;;;;;;6408604;27;20061;-49
2023/04/24 15:52:13;;;;;;;1.30;0.20;;;23.10;44.80;;;;;;6426772;27;20043;-49
2023/04/24 15:55:15;;;;;;;0.55;0.30;;;23.10;44.80;;;;;;6421051;27;20049;-44
2023/04/24 15:58:17;;;;;;;0.30;0.30;;;22.70;44.60;;;;;;6429289;27;20098;-45
2023/04/24 16:01:18;;;;;;;0.32;0.30;;;23.00;44.70;;;;;;6429770;27;20079;-44
2023/04/24 16:04:20;;;;;;;0.65;0.30;;;23.00;44.70;;;;;;6429486;27;20031;-43
2023/04/24 16:07:22;;;;;;;0.57;0.32;;;23.00;44.60;;;;;;6429291;27;20053;-42
2023/04/24 16:10:24;;;;;;;0.47;0.25;;;23.00;44.60;;;;;;6429385;27;20027;-43
2023/04/24 16:13:27;;;;;;;0.40;0.20;;;23.00;44.40;;;;;;6429079;27;20078;-43
2023/04/24 16:16:29;;;;;;;0.60;0.32;;;23.00;44.30;;;;;;6427326;27;20039;-43
2023/04/24 16:19:34;;;;;;;0.45;0.30;;;22.90;44.20;;;;;;6427366;27;20026;-43
2023/04/24 16:22:37;;;;;;;0.60;0.40;;;23.00;44.00;;;;;;6411941;27;20056;-42
2023/04/24 16:25:39;;;;;;;0.30;0.25;;;22.80;43.80;;;;;;6429841;27;20034;-46
2023/04/24 16:28:42;;;;;;;0.60;0.50;;;23.00;43.90;;;;;;6429429;27;20045;-41
2023/04/24 16:31:44;;;;;;;0.47;0.40;;;23.10;43.90;;;;;;6429426;27;20050;-44
2023/04/24 16:34:46;;;;;;;0.40;0.30;;;23.00;43.80;;;;;;6414342;27;20110;-43